Wan Hai 501 — S6AS7 — position and weather

sailwx.info

Track history (hours):
 
Tides and Currents Weather Stations Pressure Air Temp Water Temp Dewpoint Dewpoint Depression Visibility Wind Speed Wind Dir Waves Ship Positions

Wan Hai 501

Last reported at 2017-Nov-26 12:42 UTC. Time now 2017-Dec-16 14:33 UTC.
Position N 01°18' E 103°20'.
Warning: this ship's position is 20 days out of date.

Length 269 m; draft 10.8 m.

Type: Cargo ship. MMSI: 563382000.

Date/timePositionNaut miles runAvg speedWind from/ knotsBaromVisibWave heightAir tempDewpointWater temp
2017-Nov-26 12:42N 01°18' E 103°20'315.8
2017-Nov-26 12:30N 01°16' E 103°23'815.1
2017-Nov-26 11:59N 01°13' E 103°30'714.8
2017-Nov-26 11:30N 01°11' E 103°37'714.0
2017-Nov-26 11:00N 01°09' E 103°43'612.5
2017-Nov-26 10:31N 01°11' E 103°49'4 8.7
2017-Nov-26 10:01N 01°14' E 103°52'3 5.4
2017-Nov-26 09:30N 01°16' E 103°50'0 0.2
2017-Nov-26 08:51N 01°16' E 103°50'0 0.0
2017-Nov-26 08:27N 01°16' E 103°50'0 0.0
2017-Nov-26 07:57N 01°16' E 103°50'0 0.0
2017-Nov-26 07:27N 01°16' E 103°50'0 0.0
2017-Nov-26 06:51N 01°16' E 103°50'0 0.0
2017-Nov-26 06:27N 01°16' E 103°50'0 0.0
2017-Nov-26 05:57N 01°16' E 103°50'0 0.0
2017-Nov-26 05:27N 01°16' E 103°50'0 0.0
2017-Nov-26 04:57N 01°16' E 103°50'0 0.0
2017-Nov-26 04:30N 01°16' E 103°50'0 0.0
2017-Nov-26 03:57N 01°16' E 103°50'0 0.0
2017-Nov-26 03:27N 01°16' E 103°50'0 0.0
2017-Nov-26 03:00N 01°16' E 103°50'0 0.0
2017-Nov-26 02:27N 01°16' E 103°50'0 0.0
2017-Nov-26 01:57N 01°16' E 103°50'0 0.0
2017-Nov-26 01:27N 01°16' E 103°50'0 0.0
2017-Nov-26 00:57N 01°16' E 103°50'0 0.0
2017-Nov-26 00:21N 01°16' E 103°50'0 0.0
2017-Nov-25 23:57N 01°16' E 103°50'0 0.0
2017-Nov-25 23:30N 01°16' E 103°50'0 0.0
2017-Nov-25 22:57N 01°16' E 103°50'0 0.0
2017-Nov-25 22:27N 01°16' E 103°50'0 0.0
2017-Nov-25 21:51N 01°16' E 103°50'0 0.0
2017-Nov-25 21:30N 01°16' E 103°50'0 0.0
2017-Nov-25 20:57N 01°16' E 103°50'0 0.0
2017-Nov-25 20:30N 01°16' E 103°50'0 0.0
2017-Nov-25 19:57N 01°16' E 103°50'0 0.0
2017-Nov-25 19:27N 01°16' E 103°50'0 0.0
2017-Nov-25 18:57N 01°16' E 103°50'0 0.0
2017-Nov-25 18:27N 01°16' E 103°50'0 0.0
2017-Nov-25 18:00N 01°16' E 103°50'2 3.9
2017-Nov-25 17:30N 01°15' E 103°52'3 6.1
2017-Nov-25 17:00N 01°14' E 103°55'5 9.5
2017-Nov-25 16:30N 01°15' E 103°59'510.3
2017-Nov-25 16:00N 01°16' E 104°05'713.0
2017-Nov-25 15:28N 01°17' E 104°12'  
2017-Nov-17 13:20N 34°41' E 139°31'618.3
2017-Nov-17 13:01N 34°47' E 139°34'918.8
2017-Nov-17 12:30N 34°55' E 139°39'918.3
2017-Nov-17 12:01N 35°04' E 139°43'816.8
2017-Nov-17 11:30N 35°12' E 139°46'611.8
2017-Nov-17 11:00N 35°18' E 139°44'612.5
2017-Nov-17 10:30N 35°24' E 139°42'815.2
2017-Nov-17 10:00N 35°28' E 139°50'612.0
2017-Nov-17 09:30N 35°34' E 139°49'3 6.5
2017-Nov-17 09:00N 35°36' E 139°46'0 0.0
2017-Nov-17 08:30N 35°36' E 139°46'0 0.0
2017-Nov-17 07:54N 35°36' E 139°46'0 0.0
2017-Nov-17 07:18N 35°36' E 139°46'0 0.0
2017-Nov-17 06:57N 35°36' E 139°46'0 0.0
2017-Nov-17 06:30N 35°36' E 139°46'0 0.0
2017-Nov-17 06:00N 35°36' E 139°46'0 0.0
2017-Nov-17 05:24N 35°36' E 139°46'0 0.0
2017-Nov-17 04:54N 35°36' E 139°46'0 0.0
2017-Nov-17 04:27N 35°36' E 139°46'0 0.0
2017-Nov-17 03:48N 35°36' E 139°46'0 0.0
2017-Nov-17 03:30N 35°36' E 139°46'0 0.0
2017-Nov-17 02:48N 35°36' E 139°46'0 0.0
2017-Nov-17 02:27N 35°36' E 139°46'0 0.0
2017-Nov-17 01:57N 35°36' E 139°46'0 0.0
2017-Nov-17 01:30N 35°36' E 139°46'0 0.0
2017-Nov-17 00:51N 35°36' E 139°46'0 0.0
2017-Nov-17 00:21N 35°36' E 139°46'0 0.0
2017-Nov-16 23:57N 35°36' E 139°46'0 0.0
2017-Nov-16 23:30N 35°36' E 139°46'0 0.0
2017-Nov-16 22:57N 35°36' E 139°46'0 0.0
2017-Nov-16 22:27N 35°36' E 139°46'0 0.0
2017-Nov-16 21:57N 35°36' E 139°46'0 0.8
2017-Nov-16 21:30N 35°36' E 139°46'612.3
2017-Nov-16 21:01N 35°32' E 139°52'713.3
2017-Nov-16 20:30N 35°27' E 139°48'611.0
2017-Nov-16 20:00N 35°27' E 139°41'0 0.7
2017-Nov-16 19:30N 35°26' E 139°41'0 0.0
2017-Nov-16 18:57N 35°26' E 139°41'0 0.0
2017-Nov-16 18:30N 35°26' E 139°41'0 0.0
2017-Nov-16 18:00N 35°26' E 139°41'0 0.0
2017-Nov-16 17:30N 35°26' E 139°41'0 0.0
2017-Nov-16 17:00N 35°26' E 139°41'0 0.0
2017-Nov-16 16:30N 35°26' E 139°41'0 0.0
2017-Nov-16 16:00N 35°26' E 139°41'0 0.0
2017-Nov-16 15:30N 35°26' E 139°41'0 0.0
2017-Nov-16 15:00N 35°26' E 139°41'0 0.0
2017-Nov-16 14:30N 35°26' E 139°41'0 0.0
2017-Nov-16 14:00N 35°26' E 139°41'0 0.0
2017-Nov-16 13:27N 35°26' E 139°41'0 0.0
2017-Nov-16 13:00N 35°26' E 139°41'  
Track history (hours):
 
Tides and Currents Weather Stations Pressure Air Temp Water Temp Dewpoint Dewpoint Depression Visibility Wind Speed Wind Dir Waves Ship Positions

Wan Hai 501

Last reported at 2017-Nov-26 12:42 UTC. Time now 2017-Dec-16 14:33 UTC.
Position N 01°18' E 103°20'.
Warning: this ship's position is 20 days out of date.

Length 269 m; draft 10.8 m.

Type: Cargo ship. MMSI: 563382000.

Date/timePositionNaut miles runAvg speedWind from/ knotsBaromVisibWave heightAir tempDewpointWater temp
2017-Nov-26 12:42N 01°18' E 103°20'315.8
2017-Nov-26 12:30N 01°16' E 103°23'815.1
2017-Nov-26 11:59N 01°13' E 103°30'714.8
2017-Nov-26 11:30N 01°11' E 103°37'714.0
2017-Nov-26 11:00N 01°09' E 103°43'612.5
2017-Nov-26 10:31N 01°11' E 103°49'4 8.7
2017-Nov-26 10:01N 01°14' E 103°52'3 5.4
2017-Nov-26 09:30N 01°16' E 103°50'0 0.2
2017-Nov-26 08:51N 01°16' E 103°50'0 0.0
2017-Nov-26 08:27N 01°16' E 103°50'0 0.0
2017-Nov-26 07:57N 01°16' E 103°50'0 0.0
2017-Nov-26 07:27N 01°16' E 103°50'0 0.0
2017-Nov-26 06:51N 01°16' E 103°50'0 0.0
2017-Nov-26 06:27N 01°16' E 103°50'0 0.0
2017-Nov-26 05:57N 01°16' E 103°50'0 0.0
2017-Nov-26 05:27N 01°16' E 103°50'0 0.0
2017-Nov-26 04:57N 01°16' E 103°50'0 0.0
2017-Nov-26 04:30N 01°16' E 103°50'0 0.0
2017-Nov-26 03:57N 01°16' E 103°50'0 0.0
2017-Nov-26 03:27N 01°16' E 103°50'0 0.0
2017-Nov-26 03:00N 01°16' E 103°50'0 0.0
2017-Nov-26 02:27N 01°16' E 103°50'0 0.0
2017-Nov-26 01:57N 01°16' E 103°50'0 0.0
2017-Nov-26 01:27N 01°16' E 103°50'0 0.0
2017-Nov-26 00:57N 01°16' E 103°50'0 0.0
2017-Nov-26 00:21N 01°16' E 103°50'0 0.0
2017-Nov-25 23:57N 01°16' E 103°50'0 0.0
2017-Nov-25 23:30N 01°16' E 103°50'0 0.0
2017-Nov-25 22:57N 01°16' E 103°50'0 0.0
2017-Nov-25 22:27N 01°16' E 103°50'0 0.0
2017-Nov-25 21:51N 01°16' E 103°50'0 0.0
2017-Nov-25 21:30N 01°16' E 103°50'0 0.0
2017-Nov-25 20:57N 01°16' E 103°50'0 0.0
2017-Nov-25 20:30N 01°16' E 103°50'0 0.0
2017-Nov-25 19:57N 01°16' E 103°50'0 0.0
2017-Nov-25 19:27N 01°16' E 103°50'0 0.0
2017-Nov-25 18:57N 01°16' E 103°50'0 0.0
2017-Nov-25 18:27N 01°16' E 103°50'0 0.0
2017-Nov-25 18:00N 01°16' E 103°50'2 3.9
2017-Nov-25 17:30N 01°15' E 103°52'3 6.1
2017-Nov-25 17:00N 01°14' E 103°55'5 9.5
2017-Nov-25 16:30N 01°15' E 103°59'510.3
2017-Nov-25 16:00N 01°16' E 104°05'713.0
2017-Nov-25 15:28N 01°17' E 104°12'  
2017-Nov-17 13:20N 34°41' E 139°31'618.3
2017-Nov-17 13:01N 34°47' E 139°34'918.8
2017-Nov-17 12:30N 34°55' E 139°39'918.3
2017-Nov-17 12:01N 35°04' E 139°43'816.8
2017-Nov-17 11:30N 35°12' E 139°46'611.8
2017-Nov-17 11:00N 35°18' E 139°44'612.5
2017-Nov-17 10:30N 35°24' E 139°42'815.2
2017-Nov-17 10:00N 35°28' E 139°50'612.0
2017-Nov-17 09:30N 35°34' E 139°49'3 6.5
2017-Nov-17 09:00N 35°36' E 139°46'0 0.0
2017-Nov-17 08:30N 35°36' E 139°46'0 0.0
2017-Nov-17 07:54N 35°36' E 139°46'0 0.0
2017-Nov-17 07:18N 35°36' E 139°46'0 0.0
2017-Nov-17 06:57N 35°36' E 139°46'0 0.0
2017-Nov-17 06:30N 35°36' E 139°46'0 0.0
2017-Nov-17 06:00N 35°36' E 139°46'0 0.0
2017-Nov-17 05:24N 35°36' E 139°46'0 0.0
2017-Nov-17 04:54N 35°36' E 139°46'0 0.0
2017-Nov-17 04:27N 35°36' E 139°46'0 0.0
2017-Nov-17 03:48N 35°36' E 139°46'0 0.0
2017-Nov-17 03:30N 35°36' E 139°46'0 0.0
2017-Nov-17 02:48N 35°36' E 139°46'0 0.0
2017-Nov-17 02:27N 35°36' E 139°46'0 0.0
2017-Nov-17 01:57N 35°36' E 139°46'0 0.0
2017-Nov-17 01:30N 35°36' E 139°46'0 0.0
2017-Nov-17 00:51N 35°36' E 139°46'0 0.0
2017-Nov-17 00:21N 35°36' E 139°46'0 0.0
2017-Nov-16 23:57N 35°36' E 139°46'0 0.0
2017-Nov-16 23:30N 35°36' E 139°46'0 0.0
2017-Nov-16 22:57N 35°36' E 139°46'0 0.0
2017-Nov-16 22:27N 35°36' E 139°46'0 0.0
2017-Nov-16 21:57N 35°36' E 139°46'0 0.8
2017-Nov-16 21:30N 35°36' E 139°46'612.3
2017-Nov-16 21:01N 35°32' E 139°52'713.3
2017-Nov-16 20:30N 35°27' E 139°48'611.0
2017-Nov-16 20:00N 35°27' E 139°41'0 0.7
2017-Nov-16 19:30N 35°26' E 139°41'0 0.0
2017-Nov-16 18:57N 35°26' E 139°41'0 0.0
2017-Nov-16 18:30N 35°26' E 139°41'0 0.0
2017-Nov-16 18:00N 35°26' E 139°41'0 0.0
2017-Nov-16 17:30N 35°26' E 139°41'0 0.0
2017-Nov-16 17:00N 35°26' E 139°41'0 0.0
2017-Nov-16 16:30N 35°26' E 139°41'0 0.0
2017-Nov-16 16:00N 35°26' E 139°41'0 0.0
2017-Nov-16 15:30N 35°26' E 139°41'0 0.0
2017-Nov-16 15:00N 35°26' E 139°41'0 0.0
2017-Nov-16 14:30N 35°26' E 139°41'0 0.0
2017-Nov-16 14:00N 35°26' E 139°41'0 0.0
2017-Nov-16 13:27N 35°26' E 139°41'0 0.0
2017-Nov-16 13:00N 35°26' E 139°41'  

Dump ship's entire track history